sensor_id;sensor_type;location;lat;lon;timestamp;P1;durP1;ratioP1;P2;durP2;ratioP2
38843;SDS011;24596;48.080;8.362;2023-06-22T00:00:51;15.32;;;9.10;;
38843;SDS011;24596;48.080;8.362;2023-06-22T00:03:20;20.58;;;9.98;;
38843;SDS011;24596;48.080;8.362;2023-06-22T00:05:46;17.45;;;9.32;;
38843;SDS011;24596;48.080;8.362;2023-06-22T00:08:11;22.23;;;10.75;;
38843;SDS011;24596;48.080;8.362;2023-06-22T00:10:36;23.08;;;10.95;;
38843;SDS011;24596;48.080;8.362;2023-06-22T00:13:02;25.40;;;10.90;;
38843;SDS011;24596;48.080;8.362;2023-06-22T00:15:27;15.38;;;8.75;;
38843;SDS011;24596;48.080;8.362;2023-06-22T00:17:52;20.15;;;10.00;;
38843;SDS011;24596;48.080;8.362;2023-06-22T00:20:18;15.35;;;8.32;;
38843;SDS011;24596;48.080;8.362;2023-06-22T00:22:43;21.33;;;8.18;;
38843;SDS011;24596;48.080;8.362;2023-06-22T00:25:09;26.63;;;9.43;;
38843;SDS011;24596;48.080;8.362;2023-06-22T00:27:34;17.90;;;9.15;;
38843;SDS011;24596;48.080;8.362;2023-06-22T00:30:00;19.20;;;10.20;;
38843;SDS011;24596;48.080;8.362;2023-06-22T00:32:25;16.50;;;9.47;;
38843;SDS011;24596;48.080;8.362;2023-06-22T00:34:50;20.42;;;10.15;;
38843;SDS011;24596;48.080;8.362;2023-06-22T00:37:15;19.47;;;9.53;;
38843;SDS011;24596;48.080;8.362;2023-06-22T00:39:41;20.58;;;10.25;;
38843;SDS011;24596;48.080;8.362;2023-06-22T00:42:06;17.67;;;9.48;;
38843;SDS011;24596;48.080;8.362;2023-06-22T00:44:31;19.08;;;10.70;;
38843;SDS011;24596;48.080;8.362;2023-06-22T00:46:57;18.42;;;10.27;;
38843;SDS011;24596;48.080;8.362;2023-06-22T00:49:22;18.55;;;10.15;;
38843;SDS011;24596;48.080;8.362;2023-06-22T00:51:48;17.67;;;8.30;;
38843;SDS011;24596;48.080;8.362;2023-06-22T00:54:13;17.45;;;8.50;;
38843;SDS011;24596;48.080;8.362;2023-06-22T00:56:39;19.92;;;10.20;;
38843;SDS011;24596;48.080;8.362;2023-06-22T00:59:05;21.33;;;10.00;;
38843;SDS011;24596;48.080;8.362;2023-06-22T01:01:31;15.52;;;9.48;;
38843;SDS011;24596;48.080;8.362;2023-06-22T01:03:56;20.20;;;9.37;;
38843;SDS011;24596;48.080;8.362;2023-06-22T01:06:26;21.27;;;10.07;;
38843;SDS011;24596;48.080;8.362;2023-06-22T01:08:57;16.75;;;8.90;;
38843;SDS011;24596;48.080;8.362;2023-06-22T01:11:26;15.15;;;9.48;;
38843;SDS011;24596;48.080;8.362;2023-06-22T01:16:25;17.27;;;8.98;;
38843;SDS011;24596;48.080;8.362;2023-06-22T01:18:53;16.50;;;9.27;;
38843;SDS011;24596;48.080;8.362;2023-06-22T01:21:20;18.52;;;9.43;;
38843;SDS011;24596;48.080;8.362;2023-06-22T01:26:36;19.98;;;8.38;;
38843;SDS011;24596;48.080;8.362;2023-06-22T01:29:03;16.55;;;8.85;;
38843;SDS011;24596;48.080;8.362;2023-06-22T01:31:29;17.63;;;9.30;;
38843;SDS011;24596;48.080;8.362;2023-06-22T01:34:04;16.48;;;9.77;;
38843;SDS011;24596;48.080;8.362;2023-06-22T01:36:30;19.60;;;9.25;;
38843;SDS011;24596;48.080;8.362;2023-06-22T01:38:56;19.00;;;8.35;;
38843;SDS011;24596;48.080;8.362;2023-06-22T01:41:23;17.48;;;8.38;;
38843;SDS011;24596;48.080;8.362;2023-06-22T01:43:49;18.58;;;9.27;;
38843;SDS011;24596;48.080;8.362;2023-06-22T01:46:15;16.77;;;9.13;;
38843;SDS011;24596;48.080;8.362;2023-06-22T01:48:41;18.45;;;9.38;;
38843;SDS011;24596;48.080;8.362;2023-06-22T01:51:06;20.40;;;10.80;;
38843;SDS011;24596;48.080;8.362;2023-06-22T01:53:31;21.65;;;11.60;;
38843;SDS011;24596;48.080;8.362;2023-06-22T01:55:57;17.13;;;9.63;;
38843;SDS011;24596;48.080;8.362;2023-06-22T01:58:23;19.02;;;9.82;;
38843;SDS011;24596;48.080;8.362;2023-06-22T02:00:56;25.17;;;12.82;;
38843;SDS011;24596;48.080;8.362;2023-06-22T02:03:23;18.60;;;10.43;;
38843;SDS011;24596;48.080;8.362;2023-06-22T02:06:34;19.42;;;10.70;;
38843;SDS011;24596;48.080;8.362;2023-06-22T02:09:14;20.13;;;10.38;;
38843;SDS011;24596;48.080;8.362;2023-06-22T02:11:31;21.42;;;9.82;;
38843;SDS011;24596;48.080;8.362;2023-06-22T02:13:57;16.85;;;9.43;;
38843;SDS011;24596;48.080;8.362;2023-06-22T02:16:22;17.63;;;9.00;;
38843;SDS011;24596;48.080;8.362;2023-06-22T02:18:48;16.25;;;9.70;;
38843;SDS011;24596;48.080;8.362;2023-06-22T02:21:15;33.20;;;10.77;;
38843;SDS011;24596;48.080;8.362;2023-06-22T02:23:41;18.88;;;9.95;;
38843;SDS011;24596;48.080;8.362;2023-06-22T02:26:06;20.85;;;9.98;;
38843;SDS011;24596;48.080;8.362;2023-06-22T02:28:31;14.90;;;8.73;;
38843;SDS011;24596;48.080;8.362;2023-06-22T02:30:56;19.43;;;10.30;;
38843;SDS011;24596;48.080;8.362;2023-06-22T02:33:21;17.48;;;10.10;;
38843;SDS011;24596;48.080;8.362;2023-06-22T02:35:47;20.80;;;10.90;;
38843;SDS011;24596;48.080;8.362;2023-06-22T02:38:14;19.55;;;10.13;;
38843;SDS011;24596;48.080;8.362;2023-06-22T02:40:39;21.80;;;10.50;;
38843;SDS011;24596;48.080;8.362;2023-06-22T02:43:04;17.83;;;9.68;;
38843;SDS011;24596;48.080;8.362;2023-06-22T02:45:30;19.55;;;10.02;;
38843;SDS011;24596;48.080;8.362;2023-06-22T02:47:55;17.17;;;10.27;;
38843;SDS011;24596;48.080;8.362;2023-06-22T02:50:20;18.80;;;10.65;;
38843;SDS011;24596;48.080;8.362;2023-06-22T02:52:46;18.40;;;10.13;;
38843;SDS011;24596;48.080;8.362;2023-06-22T02:55:11;21.02;;;11.85;;
38843;SDS011;24596;48.080;8.362;2023-06-22T02:57:36;20.48;;;9.95;;
38843;SDS011;24596;48.080;8.362;2023-06-22T03:00:02;22.13;;;10.70;;
38843;SDS011;24596;48.080;8.362;2023-06-22T03:02:27;22.95;;;10.60;;
38843;SDS011;24596;48.080;8.362;2023-06-22T03:04:53;20.08;;;10.80;;
38843;SDS011;24596;48.080;8.362;2023-06-22T03:07:18;19.70;;;11.05;;
38843;SDS011;24596;48.080;8.362;2023-06-22T03:09:44;21.67;;;10.75;;
38843;SDS011;24596;48.080;8.362;2023-06-22T03:12:09;15.63;;;10.07;;
38843;SDS011;24596;48.080;8.362;2023-06-22T03:14:34;17.17;;;9.60;;
38843;SDS011;24596;48.080;8.362;2023-06-22T03:16:59;13.55;;;9.10;;
38843;SDS011;24596;48.080;8.362;2023-06-22T03:19:28;14.68;;;9.40;;
38843;SDS011;24596;48.080;8.362;2023-06-22T03:21:54;22.45;;;13.25;;
38843;SDS011;24596;48.080;8.362;2023-06-22T03:24:20;23.58;;;13.57;;
38843;SDS011;24596;48.080;8.362;2023-06-22T03:26:45;19.52;;;11.52;;
38843;SDS011;24596;48.080;8.362;2023-06-22T03:29:11;19.58;;;11.55;;
38843;SDS011;24596;48.080;8.362;2023-06-22T03:31:37;17.42;;;10.70;;
38843;SDS011;24596;48.080;8.362;2023-06-22T03:34:02;18.65;;;10.70;;
38843;SDS011;24596;48.080;8.362;2023-06-22T03:36:27;19.17;;;11.93;;
38843;SDS011;24596;48.080;8.362;2023-06-22T03:38:52;24.48;;;11.63;;
38843;SDS011;24596;48.080;8.362;2023-06-22T03:41:17;15.83;;;9.77;;
38843;SDS011;24596;48.080;8.362;2023-06-22T03:43:43;21.58;;;10.48;;
38843;SDS011;24596;48.080;8.362;2023-06-22T03:46:08;18.30;;;10.95;;
38843;SDS011;24596;48.080;8.362;2023-06-22T03:48:33;19.42;;;10.43;;
38843;SDS011;24596;48.080;8.362;2023-06-22T03:50:59;14.23;;;9.73;;
38843;SDS011;24596;48.080;8.362;2023-06-22T03:53:24;16.52;;;10.10;;
38843;SDS011;24596;48.080;8.362;2023-06-22T03:55:50;16.58;;;10.20;;
38843;SDS011;24596;48.080;8.362;2023-06-22T03:58:16;17.13;;;9.85;;
38843;SDS011;24596;48.080;8.362;2023-06-22T04:00:41;15.45;;;9.52;;
38843;SDS011;24596;48.080;8.362;2023-06-22T04:03:06;18.42;;;10.65;;
38843;SDS011;24596;48.080;8.362;2023-06-22T04:05:32;13.38;;;9.27;;
38843;SDS011;24596;48.080;8.362;2023-06-22T04:07:57;15.60;;;10.38;;
38843;SDS011;24596;48.080;8.362;2023-06-22T04:10:22;22.20;;;11.77;;
38843;SDS011;24596;48.080;8.362;2023-06-22T04:12:48;19.15;;;10.60;;
38843;SDS011;24596;48.080;8.362;2023-06-22T04:15:13;16.13;;;11.82;;
38843;SDS011;24596;48.080;8.362;2023-06-22T04:17:38;19.77;;;10.60;;
38843;SDS011;24596;48.080;8.362;2023-06-22T04:20:03;18.27;;;10.03;;
38843;SDS011;24596;48.080;8.362;2023-06-22T04:22:29;21.85;;;11.45;;
38843;SDS011;24596;48.080;8.362;2023-06-22T04:24:54;16.83;;;9.97;;
38843;SDS011;24596;48.080;8.362;2023-06-22T04:27:20;17.05;;;9.77;;
38843;SDS011;24596;48.080;8.362;2023-06-22T04:29:48;19.90;;;10.50;;
38843;SDS011;24596;48.080;8.362;2023-06-22T04:32:13;18.45;;;9.68;;
38843;SDS011;24596;48.080;8.362;2023-06-22T04:34:40;17.65;;;10.75;;
38843;SDS011;24596;48.080;8.362;2023-06-22T04:37:05;17.65;;;10.38;;
38843;SDS011;24596;48.080;8.362;2023-06-22T04:39:30;16.75;;;9.98;;
38843;SDS011;24596;48.080;8.362;2023-06-22T04:41:56;14.85;;;9.18;;
38843;SDS011;24596;48.080;8.362;2023-06-22T04:44:25;17.42;;;10.15;;
38843;SDS011;24596;48.080;8.362;2023-06-22T04:46:57;18.25;;;11.48;;
38843;SDS011;24596;48.080;8.362;2023-06-22T04:49:27;17.00;;;10.75;;
38843;SDS011;24596;48.080;8.362;2023-06-22T04:51:59;16.05;;;10.15;;
38843;SDS011;24596;48.080;8.362;2023-06-22T04:54:24;19.23;;;11.80;;
38843;SDS011;24596;48.080;8.362;2023-06-22T04:56:49;20.00;;;11.77;;
38843;SDS011;24596;48.080;8.362;2023-06-22T05:01:46;16.55;;;10.90;;
38843;SDS011;24596;48.080;8.362;2023-06-22T05:04:11;18.77;;;12.23;;
38843;SDS011;24596;48.080;8.362;2023-06-22T05:06:37;19.25;;;12.45;;
38843;SDS011;24596;48.080;8.362;2023-06-22T05:09:02;19.35;;;12.27;;
38843;SDS011;24596;48.080;8.362;2023-06-22T05:11:28;17.15;;;11.52;;
38843;SDS011;24596;48.080;8.362;2023-06-22T05:13:53;19.83;;;12.70;;
38843;SDS011;24596;48.080;8.362;2023-06-22T05:16:19;22.60;;;12.88;;
38843;SDS011;24596;48.080;8.362;2023-06-22T05:18:49;20.67;;;12.60;;
38843;SDS011;24596;48.080;8.362;2023-06-22T05:21:14;18.38;;;13.00;;
38843;SDS011;24596;48.080;8.362;2023-06-22T05:23:39;20.20;;;13.67;;
38843;SDS011;24596;48.080;8.362;2023-06-22T05:26:04;22.40;;;12.90;;
38843;SDS011;24596;48.080;8.362;2023-06-22T05:28:30;20.50;;;12.30;;
38843;SDS011;24596;48.080;8.362;2023-06-22T05:30:55;18.83;;;12.38;;
38843;SDS011;24596;48.080;8.362;2023-06-22T05:33:20;20.30;;;13.00;;
38843;SDS011;24596;48.080;8.362;2023-06-22T05:35:45;19.03;;;12.20;;
38843;SDS011;24596;48.080;8.362;2023-06-22T05:38:11;20.80;;;12.07;;
38843;SDS011;24596;48.080;8.362;2023-06-22T05:40:37;26.63;;;13.30;;
38843;SDS011;24596;48.080;8.362;2023-06-22T05:43:02;18.17;;;12.57;;
38843;SDS011;24596;48.080;8.362;2023-06-22T05:45:27;28.95;;;14.27;;
38843;SDS011;24596;48.080;8.362;2023-06-22T05:47:52;21.03;;;13.50;;
38843;SDS011;24596;48.080;8.362;2023-06-22T05:50:18;20.52;;;13.50;;
38843;SDS011;24596;48.080;8.362;2023-06-22T05:52:43;23.70;;;12.63;;
38843;SDS011;24596;48.080;8.362;2023-06-22T05:55:08;19.48;;;11.75;;
38843;SDS011;24596;48.080;8.362;2023-06-22T05:57:34;20.25;;;12.77;;
38843;SDS011;24596;48.080;8.362;2023-06-22T05:59:59;20.70;;;12.40;;
38843;SDS011;24596;48.080;8.362;2023-06-22T06:02:24;18.40;;;11.93;;
38843;SDS011;24596;48.080;8.362;2023-06-22T06:04:50;17.80;;;10.15;;
38843;SDS011;24596;48.080;8.362;2023-06-22T06:07:17;18.15;;;11.65;;
38843;SDS011;24596;48.080;8.362;2023-06-22T06:09:42;17.63;;;11.77;;
38843;SDS011;24596;48.080;8.362;2023-06-22T06:12:08;18.70;;;11.02;;
38843;SDS011;24596;48.080;8.362;2023-06-22T06:14:33;16.42;;;10.32;;
38843;SDS011;24596;48.080;8.362;2023-06-22T06:16:59;22.67;;;11.52;;
38843;SDS011;24596;48.080;8.362;2023-06-22T06:19:24;21.47;;;10.77;;
38843;SDS011;24596;48.080;8.362;2023-06-22T06:21:49;18.57;;;10.03;;
38843;SDS011;24596;48.080;8.362;2023-06-22T06:24:15;16.88;;;10.75;;
38843;SDS011;24596;48.080;8.362;2023-06-22T06:26:40;15.53;;;9.03;;
38843;SDS011;24596;48.080;8.362;2023-06-22T06:29:05;17.33;;;8.20;;
38843;SDS011;24596;48.080;8.362;2023-06-22T06:31:31;17.73;;;8.63;;
38843;SDS011;24596;48.080;8.362;2023-06-22T06:33:56;24.67;;;8.97;;
38843;SDS011;24596;48.080;8.362;2023-06-22T06:36:21;17.83;;;8.90;;
38843;SDS011;24596;48.080;8.362;2023-06-22T06:38:46;20.05;;;8.50;;
38843;SDS011;24596;48.080;8.362;2023-06-22T06:41:13;14.40;;;8.57;;
38843;SDS011;24596;48.080;8.362;2023-06-22T06:43:38;15.38;;;8.57;;
38843;SDS011;24596;48.080;8.362;2023-06-22T06:46:03;14.70;;;8.43;;
38843;SDS011;24596;48.080;8.362;2023-06-22T06:48:28;19.88;;;8.43;;
38843;SDS011;24596;48.080;8.362;2023-06-22T06:50:53;13.07;;;7.37;;
38843;SDS011;24596;48.080;8.362;2023-06-22T06:53:19;17.80;;;8.10;;
38843;SDS011;24596;48.080;8.362;2023-06-22T06:55:44;18.20;;;7.63;;
38843;SDS011;24596;48.080;8.362;2023-06-22T06:58:10;14.60;;;6.90;;
38843;SDS011;24596;48.080;8.362;2023-06-22T07:00:38;13.20;;;7.93;;
38843;SDS011;24596;48.080;8.362;2023-06-22T07:03:04;17.75;;;7.25;;
38843;SDS011;24596;48.080;8.362;2023-06-22T07:05:29;14.75;;;7.13;;
38843;SDS011;24596;48.080;8.362;2023-06-22T07:07:54;14.87;;;7.57;;
38843;SDS011;24596;48.080;8.362;2023-06-22T07:10:20;16.65;;;7.22;;
38843;SDS011;24596;48.080;8.362;2023-06-22T07:12:45;18.48;;;7.40;;
38843;SDS011;24596;48.080;8.362;2023-06-22T07:15:10;16.35;;;6.88;;
38843;SDS011;24596;48.080;8.362;2023-06-22T07:17:37;15.30;;;7.00;;
38843;SDS011;24596;48.080;8.362;2023-06-22T07:20:04;13.45;;;6.35;;
38843;SDS011;24596;48.080;8.362;2023-06-22T07:22:33;17.35;;;7.05;;
38843;SDS011;24596;48.080;8.362;2023-06-22T07:24:59;20.73;;;7.05;;
38843;SDS011;24596;48.080;8.362;2023-06-22T07:27:24;17.65;;;6.03;;
38843;SDS011;24596;48.080;8.362;2023-06-22T07:29:50;19.15;;;6.82;;
38843;SDS011;24596;48.080;8.362;2023-06-22T07:32:16;15.75;;;6.70;;
38843;SDS011;24596;48.080;8.362;2023-06-22T07:34:41;12.30;;;7.18;;
38843;SDS011;24596;48.080;8.362;2023-06-22T07:37:06;16.40;;;7.53;;
38843;SDS011;24596;48.080;8.362;2023-06-22T07:39:31;19.70;;;7.57;;
38843;SDS011;24596;48.080;8.362;2023-06-22T07:41:57;13.38;;;7.00;;
38843;SDS011;24596;48.080;8.362;2023-06-22T07:44:23;15.07;;;6.72;;
38843;SDS011;24596;48.080;8.362;2023-06-22T07:46:48;14.70;;;7.20;;
38843;SDS011;24596;48.080;8.362;2023-06-22T07:49:14;15.50;;;7.20;;
38843;SDS011;24596;48.080;8.362;2023-06-22T07:51:39;16.03;;;7.23;;
38843;SDS011;24596;48.080;8.362;2023-06-22T07:54:04;12.60;;;6.70;;
38843;SDS011;24596;48.080;8.362;2023-06-22T07:56:29;30.70;;;8.80;;
38843;SDS011;24596;48.080;8.362;2023-06-22T07:58:54;16.77;;;7.05;;
38843;SDS011;24596;48.080;8.362;2023-06-22T08:01:23;14.75;;;6.35;;
38843;SDS011;24596;48.080;8.362;2023-06-22T08:03:48;15.02;;;7.03;;
38843;SDS011;24596;48.080;8.362;2023-06-22T08:06:13;17.90;;;6.70;;
38843;SDS011;24596;48.080;8.362;2023-06-22T08:08:39;16.50;;;6.57;;
38843;SDS011;24596;48.080;8.362;2023-06-22T08:11:04;18.37;;;7.63;;
38843;SDS011;24596;48.080;8.362;2023-06-22T08:13:30;16.48;;;6.55;;
38843;SDS011;24596;48.080;8.362;2023-06-22T08:15:55;13.17;;;6.53;;
38843;SDS011;24596;48.080;8.362;2023-06-22T08:18:21;17.70;;;6.67;;
38843;SDS011;24596;48.080;8.362;2023-06-22T08:20:46;14.47;;;6.10;;
38843;SDS011;24596;48.080;8.362;2023-06-22T08:23:11;13.73;;;6.57;;
38843;SDS011;24596;48.080;8.362;2023-06-22T08:25:36;13.07;;;6.20;;
38843;SDS011;24596;48.080;8.362;2023-06-22T08:28:02;13.20;;;5.93;;
38843;SDS011;24596;48.080;8.362;2023-06-22T08:30:27;15.07;;;6.50;;
38843;SDS011;24596;48.080;8.362;2023-06-22T08:32:52;14.38;;;5.88;;
38843;SDS011;24596;48.080;8.362;2023-06-22T08:35:19;22.48;;;6.80;;
38843;SDS011;24596;48.080;8.362;2023-06-22T08:37:45;13.77;;;5.70;;
38843;SDS011;24596;48.080;8.362;2023-06-22T08:40:17;17.20;;;6.40;;
38843;SDS011;24596;48.080;8.362;2023-06-22T08:42:44;14.60;;;5.57;;
38843;SDS011;24596;48.080;8.362;2023-06-22T08:45:09;17.93;;;5.93;;
38843;SDS011;24596;48.080;8.362;2023-06-22T08:47:35;12.32;;;6.35;;
38843;SDS011;24596;48.080;8.362;2023-06-22T08:50:00;19.40;;;6.50;;
38843;SDS011;24596;48.080;8.362;2023-06-22T08:52:28;13.00;;;5.82;;
38843;SDS011;24596;48.080;8.362;2023-06-22T08:54:53;14.70;;;5.77;;
38843;SDS011;24596;48.080;8.362;2023-06-22T08:57:18;18.13;;;6.90;;
38843;SDS011;24596;48.080;8.362;2023-06-22T08:59:43;14.73;;;5.53;;
38843;SDS011;24596;48.080;8.362;2023-06-22T09:02:08;18.13;;;5.43;;
38843;SDS011;24596;48.080;8.362;2023-06-22T09:04:34;17.65;;;6.05;;
38843;SDS011;24596;48.080;8.362;2023-06-22T09:07:02;13.82;;;6.13;;
38843;SDS011;24596;48.080;8.362;2023-06-22T09:09:27;12.20;;;6.47;;
38843;SDS011;24596;48.080;8.362;2023-06-22T09:11:52;13.20;;;5.97;;
38843;SDS011;24596;48.080;8.362;2023-06-22T09:14:18;16.27;;;6.25;;
38843;SDS011;24596;48.080;8.362;2023-06-22T09:16:43;11.27;;;5.90;;
38843;SDS011;24596;48.080;8.362;2023-06-22T09:19:08;17.65;;;7.50;;
38843;SDS011;24596;48.080;8.362;2023-06-22T09:21:34;14.50;;;6.13;;
38843;SDS011;24596;48.080;8.362;2023-06-22T09:23:59;11.47;;;6.33;;
38843;SDS011;24596;48.080;8.362;2023-06-22T09:26:24;9.87;;;5.40;;
38843;SDS011;24596;48.080;8.362;2023-06-22T09:28:50;13.32;;;6.05;;
38843;SDS011;24596;48.080;8.362;2023-06-22T09:31:15;12.27;;;5.93;;
38843;SDS011;24596;48.080;8.362;2023-06-22T09:33:41;11.43;;;6.13;;
38843;SDS011;24596;48.080;8.362;2023-06-22T09:36:07;14.18;;;6.03;;
38843;SDS011;24596;48.080;8.362;2023-06-22T09:38:35;16.17;;;6.65;;
38843;SDS011;24596;48.080;8.362;2023-06-22T09:41:00;16.48;;;7.15;;
38843;SDS011;24596;48.080;8.362;2023-06-22T09:43:26;12.60;;;6.37;;
38843;SDS011;24596;48.080;8.362;2023-06-22T09:45:51;13.98;;;6.55;;
38843;SDS011;24596;48.080;8.362;2023-06-22T09:48:17;15.63;;;6.63;;
38843;SDS011;24596;48.080;8.362;2023-06-22T09:50:42;13.85;;;6.90;;
38843;SDS011;24596;48.080;8.362;2023-06-22T09:53:07;14.70;;;7.17;;
38843;SDS011;24596;48.080;8.362;2023-06-22T09:55:33;14.60;;;7.20;;
38843;SDS011;24596;48.080;8.362;2023-06-22T09:57:58;14.07;;;6.90;;
38843;SDS011;24596;48.080;8.362;2023-06-22T10:00:23;16.93;;;6.90;;
38843;SDS011;24596;48.080;8.362;2023-06-22T10:02:48;13.43;;;6.30;;
38843;SDS011;24596;48.080;8.362;2023-06-22T10:05:14;14.68;;;6.75;;
38843;SDS011;24596;48.080;8.362;2023-06-22T10:07:39;14.83;;;7.10;;
38843;SDS011;24596;48.080;8.362;2023-06-22T10:10:07;17.58;;;7.28;;
38843;SDS011;24596;48.080;8.362;2023-06-22T10:12:33;17.08;;;7.00;;
38843;SDS011;24596;48.080;8.362;2023-06-22T10:14:58;19.13;;;8.03;;
38843;SDS011;24596;48.080;8.362;2023-06-22T10:17:23;16.60;;;8.80;;
38843;SDS011;24596;48.080;8.362;2023-06-22T10:19:48;16.10;;;7.67;;
38843;SDS011;24596;48.080;8.362;2023-06-22T10:22:13;14.50;;;8.13;;
38843;SDS011;24596;48.080;8.362;2023-06-22T10:24:38;20.53;;;7.27;;
38843;SDS011;24596;48.080;8.362;2023-06-22T10:27:09;16.65;;;7.10;;
38843;SDS011;24596;48.080;8.362;2023-06-22T10:29:34;18.90;;;8.05;;
38843;SDS011;24596;48.080;8.362;2023-06-22T10:31:59;16.10;;;6.73;;
38843;SDS011;24596;48.080;8.362;2023-06-22T10:34:25;20.27;;;7.60;;
38843;SDS011;24596;48.080;8.362;2023-06-22T10:36:50;19.63;;;7.67;;
38843;SDS011;24596;48.080;8.362;2023-06-22T10:39:15;21.13;;;7.30;;
38843;SDS011;24596;48.080;8.362;2023-06-22T10:41:40;13.30;;;6.40;;
38843;SDS011;24596;48.080;8.362;2023-06-22T10:44:06;16.80;;;7.60;;
38843;SDS011;24596;48.080;8.362;2023-06-22T10:46:31;16.48;;;6.55;;
38843;SDS011;24596;48.080;8.362;2023-06-22T10:48:56;12.07;;;6.93;;
38843;SDS011;24596;48.080;8.362;2023-06-22T10:51:23;17.17;;;6.80;;
38843;SDS011;24596;48.080;8.362;2023-06-22T10:53:48;15.90;;;7.15;;
38843;SDS011;24596;48.080;8.362;2023-06-22T10:56:14;14.13;;;6.27;;
38843;SDS011;24596;48.080;8.362;2023-06-22T10:58:39;16.55;;;7.32;;
38843;SDS011;24596;48.080;8.362;2023-06-22T11:01:04;14.77;;;6.37;;
38843;SDS011;24596;48.080;8.362;2023-06-22T11:03:29;17.27;;;6.77;;
38843;SDS011;24596;48.080;8.362;2023-06-22T11:05:54;15.87;;;6.50;;
38843;SDS011;24596;48.080;8.362;2023-06-22T11:08:20;14.27;;;6.77;;
38843;SDS011;24596;48.080;8.362;2023-06-22T11:10:45;19.27;;;6.73;;
38843;SDS011;24596;48.080;8.362;2023-06-22T11:13:10;16.50;;;6.78;;
38843;SDS011;24596;48.080;8.362;2023-06-22T11:15:36;17.63;;;6.95;;
38843;SDS011;24596;48.080;8.362;2023-06-22T11:18:01;14.95;;;6.78;;
38843;SDS011;24596;48.080;8.362;2023-06-22T11:20:26;15.40;;;6.57;;
38843;SDS011;24596;48.080;8.362;2023-06-22T11:22:51;16.90;;;6.90;;
38843;SDS011;24596;48.080;8.362;2023-06-22T11:25:17;11.40;;;6.97;;
38843;SDS011;24596;48.080;8.362;2023-06-22T11:27:42;18.10;;;7.28;;
38843;SDS011;24596;48.080;8.362;2023-06-22T11:30:07;17.50;;;8.13;;
38843;SDS011;24596;48.080;8.362;2023-06-22T11:32:33;19.35;;;7.30;;
38843;SDS011;24596;48.080;8.362;2023-06-22T11:34:58;14.35;;;6.75;;
38843;SDS011;24596;48.080;8.362;2023-06-22T11:37:24;12.63;;;6.60;;
38843;SDS011;24596;48.080;8.362;2023-06-22T11:39:49;15.63;;;8.13;;
38843;SDS011;24596;48.080;8.362;2023-06-22T11:42:14;15.88;;;7.22;;
38843;SDS011;24596;48.080;8.362;2023-06-22T11:44:39;15.75;;;7.22;;
38843;SDS011;24596;48.080;8.362;2023-06-22T11:47:05;17.87;;;6.60;;
38843;SDS011;24596;48.080;8.362;2023-06-22T11:49:30;14.30;;;7.25;;
38843;SDS011;24596;48.080;8.362;2023-06-22T11:51:56;16.08;;;7.40;;
38843;SDS011;24596;48.080;8.362;2023-06-22T11:54:21;15.57;;;6.90;;
38843;SDS011;24596;48.080;8.362;2023-06-22T11:56:46;15.70;;;7.60;;
38843;SDS011;24596;48.080;8.362;2023-06-22T11:59:11;14.80;;;6.70;;
38843;SDS011;24596;48.080;8.362;2023-06-22T12:01:37;12.47;;;6.10;;
38843;SDS011;24596;48.080;8.362;2023-06-22T12:04:02;20.05;;;6.70;;
38843;SDS011;24596;48.080;8.362;2023-06-22T12:06:30;17.05;;;6.57;;
38843;SDS011;24596;48.080;8.362;2023-06-22T12:08:55;14.93;;;5.40;;
38843;SDS011;24596;48.080;8.362;2023-06-22T12:11:21;15.13;;;4.70;;
38843;SDS011;24596;48.080;8.362;2023-06-22T12:13:46;14.37;;;5.07;;
38843;SDS011;24596;48.080;8.362;2023-06-22T12:16:11;19.67;;;4.87;;
38843;SDS011;24596;48.080;8.362;2023-06-22T12:18:37;13.77;;;4.85;;
38843;SDS011;24596;48.080;8.362;2023-06-22T12:21:02;17.97;;;3.40;;
38843;SDS011;24596;48.080;8.362;2023-06-22T12:23:27;16.25;;;3.90;;
38843;SDS011;24596;48.080;8.362;2023-06-22T12:25:52;16.53;;;3.90;;
38843;SDS011;24596;48.080;8.362;2023-06-22T12:28:18;13.60;;;3.67;;
38843;SDS011;24596;48.080;8.362;2023-06-22T12:30:43;12.93;;;2.97;;
38843;SDS011;24596;48.080;8.362;2023-06-22T12:33:08;14.45;;;3.03;;
38843;SDS011;24596;48.080;8.362;2023-06-22T12:35:34;13.90;;;3.65;;
38843;SDS011;24596;48.080;8.362;2023-06-22T12:37:59;10.23;;;2.92;;
38843;SDS011;24596;48.080;8.362;2023-06-22T12:40:24;13.83;;;2.60;;
38843;SDS011;24596;48.080;8.362;2023-06-22T12:42:49;16.42;;;2.97;;
38843;SDS011;24596;48.080;8.362;2023-06-22T12:45:15;12.87;;;3.27;;
38843;SDS011;24596;48.080;8.362;2023-06-22T12:47:40;12.80;;;2.90;;
38843;SDS011;24596;48.080;8.362;2023-06-22T12:50:05;12.33;;;3.30;;
38843;SDS011;24596;48.080;8.362;2023-06-22T12:52:31;10.55;;;3.03;;
38843;SDS011;24596;48.080;8.362;2023-06-22T12:54:59;14.75;;;3.58;;
38843;SDS011;24596;48.080;8.362;2023-06-22T12:57:24;14.83;;;3.50;;
38843;SDS011;24596;48.080;8.362;2023-06-22T12:59:50;8.25;;;3.33;;
38843;SDS011;24596;48.080;8.362;2023-06-22T13:02:15;14.27;;;3.27;;
38843;SDS011;24596;48.080;8.362;2023-06-22T13:04:41;14.05;;;3.53;;
38843;SDS011;24596;48.080;8.362;2023-06-22T13:07:07;14.48;;;3.45;;
38843;SDS011;24596;48.080;8.362;2023-06-22T13:09:33;12.70;;;3.70;;
38843;SDS011;24596;48.080;8.362;2023-06-22T13:11:59;11.77;;;3.22;;
38843;SDS011;24596;48.080;8.362;2023-06-22T13:14:25;10.13;;;3.30;;
38843;SDS011;24596;48.080;8.362;2023-06-22T13:16:50;19.07;;;4.60;;
38843;SDS011;24596;48.080;8.362;2023-06-22T13:19:15;16.00;;;4.10;;
38843;SDS011;24596;48.080;8.362;2023-06-22T13:21:41;17.13;;;4.03;;
38843;SDS011;24596;48.080;8.362;2023-06-22T13:24:06;23.75;;;4.10;;
38843;SDS011;24596;48.080;8.362;2023-06-22T13:26:31;18.17;;;4.43;;
38843;SDS011;24596;48.080;8.362;2023-06-22T13:28:56;15.17;;;4.57;;
38843;SDS011;24596;48.080;8.362;2023-06-22T13:31:22;16.70;;;4.13;;
38843;SDS011;24596;48.080;8.362;2023-06-22T13:33:47;15.33;;;4.30;;
38843;SDS011;24596;48.080;8.362;2023-06-22T13:36:13;15.07;;;3.95;;
38843;SDS011;24596;48.080;8.362;2023-06-22T13:38:39;16.80;;;4.37;;
38843;SDS011;24596;48.080;8.362;2023-06-22T13:41:04;14.33;;;3.83;;
38843;SDS011;24596;48.080;8.362;2023-06-22T13:43:29;12.48;;;4.20;;
38843;SDS011;24596;48.080;8.362;2023-06-22T13:45:55;17.00;;;4.70;;
38843;SDS011;24596;48.080;8.362;2023-06-22T13:48:20;14.57;;;4.37;;
38843;SDS011;24596;48.080;8.362;2023-06-22T13:50:45;15.63;;;4.78;;
38843;SDS011;24596;48.080;8.362;2023-06-22T13:53:10;14.87;;;5.00;;
38843;SDS011;24596;48.080;8.362;2023-06-22T13:55:36;11.77;;;4.47;;
38843;SDS011;24596;48.080;8.362;2023-06-22T13:58:01;14.10;;;4.53;;
38843;SDS011;24596;48.080;8.362;2023-06-22T14:00:26;15.85;;;5.00;;
38843;SDS011;24596;48.080;8.362;2023-06-22T14:02:53;13.73;;;4.50;;
38843;SDS011;24596;48.080;8.362;2023-06-22T14:05:18;12.27;;;4.57;;
38843;SDS011;24596;48.080;8.362;2023-06-22T14:07:43;15.63;;;4.07;;
38843;SDS011;24596;48.080;8.362;2023-06-22T14:10:08;15.38;;;4.35;;
38843;SDS011;24596;48.080;8.362;2023-06-22T14:12:34;16.90;;;4.93;;
38843;SDS011;24596;48.080;8.362;2023-06-22T14:14:59;17.50;;;4.60;;
38843;SDS011;24596;48.080;8.362;2023-06-22T14:17:24;14.75;;;4.72;;
38843;SDS011;24596;48.080;8.362;2023-06-22T14:19:51;19.27;;;4.90;;
38843;SDS011;24596;48.080;8.362;2023-06-22T14:22:20;20.08;;;4.78;;
38843;SDS011;24596;48.080;8.362;2023-06-22T14:24:45;15.85;;;4.72;;
38843;SDS011;24596;48.080;8.362;2023-06-22T14:27:10;19.98;;;5.72;;
38843;SDS011;24596;48.080;8.362;2023-06-22T14:29:36;15.47;;;5.30;;